Weather at Ercan International Airport

Public forecast

Using degrees Celsius for public forecast. Weather courtesy of forecast.io.

Current aviation weather report (METAR) for Ercan International Airport

Retrieved 2022/07/03 12:20 UTC (10 minutes ago):

LCEN 031220Z 12006KT 9999 FEW025 36/14 Q1004 NOSIG RMK RWY11 19014KT

Aviation forecast (TAF) for Ercan International Airport

Retrieved 2022/07/03 12:03 UTC (27 minutes ago):

TAF LCEN 031040Z 0312/0412 08015G25KT CAVOK TEMPO 0312/0315 9999 FEW025 BECMG 0318/0321 28015KT